sensor_id;sensor_type;location;lat;lon;timestamp;P1;durP1;ratioP1;P2;durP2;ratioP2
80510;SDS011;69840;53.040;8.600;2023-07-29T00:01:20;16.42;;;7.75;;
80510;SDS011;69840;53.040;8.600;2023-07-29T00:05:33;15.52;;;8.52;;
80510;SDS011;69840;53.040;8.600;2023-07-29T00:09:46;12.40;;;6.70;;
80510;SDS011;69840;53.040;8.600;2023-07-29T00:13:59;16.75;;;8.40;;
80510;SDS011;69840;53.040;8.600;2023-07-29T00:18:12;15.68;;;7.65;;
80510;SDS011;69840;53.040;8.600;2023-07-29T00:22:25;18.08;;;9.57;;
80510;SDS011;69840;53.040;8.600;2023-07-29T00:26:38;14.40;;;8.40;;
80510;SDS011;69840;53.040;8.600;2023-07-29T00:30:51;19.55;;;9.15;;
80510;SDS011;69840;53.040;8.600;2023-07-29T00:35:04;15.15;;;8.57;;
80510;SDS011;69840;53.040;8.600;2023-07-29T00:39:17;17.52;;;8.60;;
80510;SDS011;69840;53.040;8.600;2023-07-29T00:43:31;16.35;;;8.20;;
80510;SDS011;69840;53.040;8.600;2023-07-29T00:47:46;15.20;;;7.97;;
80510;SDS011;69840;53.040;8.600;2023-07-29T00:52:01;17.52;;;8.93;;
80510;SDS011;69840;53.040;8.600;2023-07-29T00:56:14;22.60;;;9.60;;
80510;SDS011;69840;53.040;8.600;2023-07-29T01:00:28;20.23;;;9.20;;
80510;SDS011;69840;53.040;8.600;2023-07-29T01:04:41;18.05;;;9.52;;
80510;SDS011;69840;53.040;8.600;2023-07-29T01:09:04;17.35;;;8.90;;
80510;SDS011;69840;53.040;8.600;2023-07-29T01:13:23;21.85;;;9.10;;
80510;SDS011;69840;53.040;8.600;2023-07-29T01:17:49;21.08;;;10.68;;
80510;SDS011;69840;53.040;8.600;2023-07-29T01:22:07;17.02;;;8.93;;
80510;SDS011;69840;53.040;8.600;2023-07-29T01:26:20;17.42;;;9.15;;
80510;SDS011;69840;53.040;8.600;2023-07-29T01:30:36;21.10;;;10.38;;
80510;SDS011;69840;53.040;8.600;2023-07-29T01:39:52;16.75;;;8.35;;
80510;SDS011;69840;53.040;8.600;2023-07-29T01:44:09;15.50;;;8.25;;
80510;SDS011;69840;53.040;8.600;2023-07-29T01:48:23;17.60;;;9.05;;
80510;SDS011;69840;53.040;8.600;2023-07-29T01:52:36;18.20;;;9.23;;
80510;SDS011;69840;53.040;8.600;2023-07-29T01:56:48;18.23;;;9.50;;
80510;SDS011;69840;53.040;8.600;2023-07-29T02:01:01;19.50;;;8.70;;
80510;SDS011;69840;53.040;8.600;2023-07-29T02:05:14;19.40;;;8.63;;
80510;SDS011;69840;53.040;8.600;2023-07-29T02:09:27;20.77;;;10.50;;
80510;SDS011;69840;53.040;8.600;2023-07-29T02:13:40;17.38;;;9.57;;
80510;SDS011;69840;53.040;8.600;2023-07-29T02:17:53;20.45;;;10.10;;
80510;SDS011;69840;53.040;8.600;2023-07-29T02:22:06;16.63;;;7.70;;
80510;SDS011;69840;53.040;8.600;2023-07-29T02:26:18;19.05;;;9.50;;
80510;SDS011;69840;53.040;8.600;2023-07-29T02:30:31;17.65;;;8.32;;
80510;SDS011;69840;53.040;8.600;2023-07-29T02:34:44;18.13;;;10.00;;
80510;SDS011;69840;53.040;8.600;2023-07-29T02:38:57;19.00;;;8.77;;
80510;SDS011;69840;53.040;8.600;2023-07-29T02:43:10;19.27;;;9.25;;
80510;SDS011;69840;53.040;8.600;2023-07-29T02:47:23;20.65;;;10.45;;
80510;SDS011;69840;53.040;8.600;2023-07-29T02:51:35;17.83;;;8.95;;
80510;SDS011;69840;53.040;8.600;2023-07-29T02:55:48;23.48;;;11.00;;
80510;SDS011;69840;53.040;8.600;2023-07-29T03:00:01;22.30;;;10.60;;
80510;SDS011;69840;53.040;8.600;2023-07-29T03:04:15;36.15;;;13.27;;
80510;SDS011;69840;53.040;8.600;2023-07-29T03:08:28;26.27;;;12.38;;
80510;SDS011;69840;53.040;8.600;2023-07-29T03:12:40;24.02;;;11.18;;
80510;SDS011;69840;53.040;8.600;2023-07-29T03:16:53;30.13;;;12.38;;
80510;SDS011;69840;53.040;8.600;2023-07-29T03:21:06;30.00;;;12.25;;
80510;SDS011;69840;53.040;8.600;2023-07-29T03:25:20;30.83;;;14.25;;
80510;SDS011;69840;53.040;8.600;2023-07-29T03:29:32;31.17;;;12.20;;
80510;SDS011;69840;53.040;8.600;2023-07-29T03:33:45;23.52;;;11.27;;
80510;SDS011;69840;53.040;8.600;2023-07-29T03:37:58;24.73;;;11.50;;
80510;SDS011;69840;53.040;8.600;2023-07-29T03:42:11;29.70;;;13.57;;
80510;SDS011;69840;53.040;8.600;2023-07-29T03:46:25;30.63;;;12.10;;
80510;SDS011;69840;53.040;8.600;2023-07-29T03:50:38;29.90;;;12.55;;
80510;SDS011;69840;53.040;8.600;2023-07-29T03:54:51;28.27;;;12.70;;
80510;SDS011;69840;53.040;8.600;2023-07-29T03:59:06;27.67;;;10.27;;
80510;SDS011;69840;53.040;8.600;2023-07-29T04:03:19;26.88;;;12.15;;
80510;SDS011;69840;53.040;8.600;2023-07-29T04:07:33;26.80;;;11.15;;
80510;SDS011;69840;53.040;8.600;2023-07-29T04:11:47;27.27;;;13.45;;
80510;SDS011;69840;53.040;8.600;2023-07-29T04:16:00;24.58;;;10.90;;
80510;SDS011;69840;53.040;8.600;2023-07-29T04:20:13;27.15;;;11.70;;
80510;SDS011;69840;53.040;8.600;2023-07-29T04:24:26;31.67;;;11.98;;
80510;SDS011;69840;53.040;8.600;2023-07-29T04:28:39;23.48;;;11.52;;
80510;SDS011;69840;53.040;8.600;2023-07-29T04:32:52;27.55;;;10.88;;
80510;SDS011;69840;53.040;8.600;2023-07-29T04:37:06;21.02;;;10.70;;
80510;SDS011;69840;53.040;8.600;2023-07-29T04:41:18;21.92;;;9.50;;
80510;SDS011;69840;53.040;8.600;2023-07-29T04:45:31;20.75;;;10.02;;
80510;SDS011;69840;53.040;8.600;2023-07-29T04:49:44;20.70;;;9.70;;
80510;SDS011;69840;53.040;8.600;2023-07-29T04:53:57;22.23;;;10.00;;
80510;SDS011;69840;53.040;8.600;2023-07-29T04:58:10;23.80;;;10.68;;
80510;SDS011;69840;53.040;8.600;2023-07-29T05:02:23;25.42;;;9.93;;
80510;SDS011;69840;53.040;8.600;2023-07-29T05:06:36;21.25;;;9.45;;
80510;SDS011;69840;53.040;8.600;2023-07-29T05:10:49;21.50;;;11.10;;
80510;SDS011;69840;53.040;8.600;2023-07-29T05:15:03;23.02;;;10.60;;
80510;SDS011;69840;53.040;8.600;2023-07-29T05:19:17;17.75;;;8.85;;
80510;SDS011;69840;53.040;8.600;2023-07-29T05:23:30;20.55;;;9.52;;
80510;SDS011;69840;53.040;8.600;2023-07-29T05:27:42;20.27;;;9.70;;
80510;SDS011;69840;53.040;8.600;2023-07-29T05:31:55;18.60;;;8.73;;
80510;SDS011;69840;53.040;8.600;2023-07-29T05:36:08;15.82;;;8.73;;
80510;SDS011;69840;53.040;8.600;2023-07-29T05:40:21;18.27;;;8.82;;
80510;SDS011;69840;53.040;8.600;2023-07-29T05:44:34;17.42;;;9.13;;
80510;SDS011;69840;53.040;8.600;2023-07-29T05:48:47;20.23;;;9.90;;
80510;SDS011;69840;53.040;8.600;2023-07-29T05:53:00;16.00;;;8.57;;
80510;SDS011;69840;53.040;8.600;2023-07-29T05:57:13;16.52;;;7.85;;
80510;SDS011;69840;53.040;8.600;2023-07-29T06:01:26;17.40;;;8.30;;
80510;SDS011;69840;53.040;8.600;2023-07-29T06:05:39;20.02;;;8.68;;
80510;SDS011;69840;53.040;8.600;2023-07-29T06:09:53;16.60;;;8.80;;
80510;SDS011;69840;53.040;8.600;2023-07-29T06:14:06;13.27;;;8.13;;
80510;SDS011;69840;53.040;8.600;2023-07-29T06:18:18;13.93;;;8.73;;
80510;SDS011;69840;53.040;8.600;2023-07-29T06:22:31;14.57;;;8.32;;
80510;SDS011;69840;53.040;8.600;2023-07-29T06:26:44;13.13;;;7.13;;
80510;SDS011;69840;53.040;8.600;2023-07-29T06:30:58;15.27;;;9.30;;
80510;SDS011;69840;53.040;8.600;2023-07-29T06:35:11;15.05;;;7.18;;
80510;SDS011;69840;53.040;8.600;2023-07-29T06:39:24;17.02;;;7.68;;
80510;SDS011;69840;53.040;8.600;2023-07-29T06:43:37;15.73;;;7.93;;
80510;SDS011;69840;53.040;8.600;2023-07-29T06:47:50;13.05;;;7.63;;
80510;SDS011;69840;53.040;8.600;2023-07-29T06:52:03;10.30;;;5.93;;
80510;SDS011;69840;53.040;8.600;2023-07-29T06:56:16;12.30;;;6.30;;
80510;SDS011;69840;53.040;8.600;2023-07-29T07:00:30;9.27;;;4.82;;
80510;SDS011;69840;53.040;8.600;2023-07-29T07:04:42;7.88;;;4.72;;
80510;SDS011;69840;53.040;8.600;2023-07-29T07:08:55;9.40;;;4.75;;
80510;SDS011;69840;53.040;8.600;2023-07-29T07:13:08;7.50;;;4.57;;
80510;SDS011;69840;53.040;8.600;2023-07-29T07:17:22;8.23;;;4.35;;
80510;SDS011;69840;53.040;8.600;2023-07-29T07:21:35;10.38;;;4.38;;
80510;SDS011;69840;53.040;8.600;2023-07-29T07:25:49;6.15;;;3.63;;
80510;SDS011;69840;53.040;8.600;2023-07-29T07:30:02;7.55;;;3.55;;
80510;SDS011;69840;53.040;8.600;2023-07-29T07:34:16;7.22;;;3.28;;
80510;SDS011;69840;53.040;8.600;2023-07-29T07:38:29;4.07;;;2.85;;
80510;SDS011;69840;53.040;8.600;2023-07-29T07:42:42;7.90;;;2.92;;
80510;SDS011;69840;53.040;8.600;2023-07-29T07:46:56;6.65;;;3.13;;
80510;SDS011;69840;53.040;8.600;2023-07-29T07:51:12;7.50;;;3.30;;
80510;SDS011;69840;53.040;8.600;2023-07-29T07:55:26;5.10;;;2.90;;
80510;SDS011;69840;53.040;8.600;2023-07-29T07:59:39;4.97;;;2.97;;
80510;SDS011;69840;53.040;8.600;2023-07-29T08:03:52;5.30;;;2.33;;
80510;SDS011;69840;53.040;8.600;2023-07-29T08:08:05;3.85;;;2.50;;
80510;SDS011;69840;53.040;8.600;2023-07-29T08:12:19;3.83;;;2.33;;
80510;SDS011;69840;53.040;8.600;2023-07-29T08:16:32;3.22;;;1.63;;
80510;SDS011;69840;53.040;8.600;2023-07-29T08:20:55;3.25;;;1.77;;
80510;SDS011;69840;53.040;8.600;2023-07-29T08:25:10;4.50;;;2.30;;
80510;SDS011;69840;53.040;8.600;2023-07-29T08:29:23;3.03;;;1.73;;
80510;SDS011;69840;53.040;8.600;2023-07-29T08:33:36;3.08;;;1.67;;
80510;SDS011;69840;53.040;8.600;2023-07-29T08:37:50;4.63;;;2.00;;
80510;SDS011;69840;53.040;8.600;2023-07-29T08:42:03;5.03;;;2.45;;
80510;SDS011;69840;53.040;8.600;2023-07-29T08:46:20;5.85;;;2.30;;
80510;SDS011;69840;53.040;8.600;2023-07-29T08:50:33;4.82;;;2.45;;
80510;SDS011;69840;53.040;8.600;2023-07-29T08:54:48;4.82;;;3.15;;
80510;SDS011;69840;53.040;8.600;2023-07-29T08:59:02;4.82;;;2.55;;
80510;SDS011;69840;53.040;8.600;2023-07-29T09:03:16;6.93;;;3.60;;
80510;SDS011;69840;53.040;8.600;2023-07-29T09:07:30;3.25;;;2.25;;
80510;SDS011;69840;53.040;8.600;2023-07-29T09:11:44;3.58;;;2.22;;
80510;SDS011;69840;53.040;8.600;2023-07-29T09:15:57;4.63;;;2.92;;
80510;SDS011;69840;53.040;8.600;2023-07-29T09:20:11;4.47;;;2.80;;
80510;SDS011;69840;53.040;8.600;2023-07-29T09:24:24;4.38;;;2.70;;
80510;SDS011;69840;53.040;8.600;2023-07-29T09:28:39;3.00;;;1.98;;
80510;SDS011;69840;53.040;8.600;2023-07-29T09:32:56;3.83;;;2.67;;
80510;SDS011;69840;53.040;8.600;2023-07-29T09:37:14;3.67;;;2.78;;
80510;SDS011;69840;53.040;8.600;2023-07-29T09:45:25;17.67;;;6.07;;
80510;SDS011;69840;53.040;8.600;2023-07-29T09:49:40;7.22;;;3.50;;
80510;SDS011;69840;53.040;8.600;2023-07-29T09:53:53;3.30;;;3.00;;
80510;SDS011;69840;53.040;8.600;2023-07-29T09:58:06;9.88;;;4.85;;
80510;SDS011;69840;53.040;8.600;2023-07-29T10:02:20;12.48;;;4.72;;
80510;SDS011;69840;53.040;8.600;2023-07-29T10:06:34;4.93;;;2.35;;
80510;SDS011;69840;53.040;8.600;2023-07-29T10:10:49;3.00;;;2.53;;
80510;SDS011;69840;53.040;8.600;2023-07-29T10:15:05;5.32;;;3.20;;
80510;SDS011;69840;53.040;8.600;2023-07-29T10:19:19;3.25;;;2.65;;
80510;SDS011;69840;53.040;8.600;2023-07-29T10:23:38;3.60;;;2.25;;
80510;SDS011;69840;53.040;8.600;2023-07-29T10:28:04;2.10;;;1.73;;
80510;SDS011;69840;53.040;8.600;2023-07-29T10:32:18;2.72;;;2.03;;
80510;SDS011;69840;53.040;8.600;2023-07-29T10:36:35;2.88;;;1.85;;
80510;SDS011;69840;53.040;8.600;2023-07-29T10:40:54;4.18;;;1.70;;
80510;SDS011;69840;53.040;8.600;2023-07-29T10:45:18;2.25;;;1.70;;
80510;SDS011;69840;53.040;8.600;2023-07-29T10:49:35;3.58;;;2.33;;
80510;SDS011;69840;53.040;8.600;2023-07-29T10:53:48;6.60;;;4.72;;
80510;SDS011;69840;53.040;8.600;2023-07-29T10:58:12;2.50;;;1.52;;
80510;SDS011;69840;53.040;8.600;2023-07-29T11:02:36;2.10;;;1.33;;
80510;SDS011;69840;53.040;8.600;2023-07-29T11:11:16;5.13;;;1.48;;
80510;SDS011;69840;53.040;8.600;2023-07-29T11:15:29;1.70;;;1.60;;
80510;SDS011;69840;53.040;8.600;2023-07-29T11:19:43;2.60;;;1.67;;
80510;SDS011;69840;53.040;8.600;2023-07-29T11:23:57;5.15;;;2.30;;
80510;SDS011;69840;53.040;8.600;2023-07-29T11:28:10;5.18;;;2.97;;
80510;SDS011;69840;53.040;8.600;2023-07-29T11:32:24;3.47;;;2.75;;
80510;SDS011;69840;53.040;8.600;2023-07-29T11:36:38;4.25;;;2.00;;
80510;SDS011;69840;53.040;8.600;2023-07-29T11:40:55;3.22;;;1.63;;
80510;SDS011;69840;53.040;8.600;2023-07-29T11:45:12;3.72;;;2.33;;
80510;SDS011;69840;53.040;8.600;2023-07-29T11:49:28;2.65;;;1.95;;
80510;SDS011;69840;53.040;8.600;2023-07-29T11:53:42;3.97;;;2.63;;
80510;SDS011;69840;53.040;8.600;2023-07-29T11:57:56;2.08;;;1.85;;
80510;SDS011;69840;53.040;8.600;2023-07-29T12:02:14;1.83;;;1.40;;
80510;SDS011;69840;53.040;8.600;2023-07-29T12:06:28;3.35;;;2.25;;
80510;SDS011;69840;53.040;8.600;2023-07-29T12:10:42;3.67;;;1.83;;
80510;SDS011;69840;53.040;8.600;2023-07-29T12:14:56;4.18;;;1.20;;
80510;SDS011;69840;53.040;8.600;2023-07-29T12:19:13;1.58;;;1.13;;
80510;SDS011;69840;53.040;8.600;2023-07-29T12:23:28;3.10;;;1.30;;
80510;SDS011;69840;53.040;8.600;2023-07-29T12:27:43;2.35;;;1.17;;
80510;SDS011;69840;53.040;8.600;2023-07-29T12:31:59;3.50;;;1.05;;
80510;SDS011;69840;53.040;8.600;2023-07-29T12:36:15;2.72;;;1.35;;
80510;SDS011;69840;53.040;8.600;2023-07-29T12:40:29;2.33;;;1.02;;
80510;SDS011;69840;53.040;8.600;2023-07-29T12:44:42;1.50;;;1.08;;
80510;SDS011;69840;53.040;8.600;2023-07-29T12:48:56;1.55;;;0.93;;
80510;SDS011;69840;53.040;8.600;2023-07-29T12:53:09;1.77;;;1.35;;
80510;SDS011;69840;53.040;8.600;2023-07-29T12:57:23;3.22;;;1.35;;
80510;SDS011;69840;53.040;8.600;2023-07-29T13:01:36;2.35;;;1.23;;
80510;SDS011;69840;53.040;8.600;2023-07-29T13:05:49;2.50;;;1.33;;
80510;SDS011;69840;53.040;8.600;2023-07-29T13:10:03;1.63;;;1.13;;
80510;SDS011;69840;53.040;8.600;2023-07-29T13:14:16;2.60;;;1.35;;
80510;SDS011;69840;53.040;8.600;2023-07-29T13:18:30;3.38;;;1.02;;
80510;SDS011;69840;53.040;8.600;2023-07-29T13:22:43;4.07;;;1.48;;
80510;SDS011;69840;53.040;8.600;2023-07-29T13:26:57;4.80;;;1.88;;
80510;SDS011;69840;53.040;8.600;2023-07-29T13:31:10;4.07;;;1.17;;
80510;SDS011;69840;53.040;8.600;2023-07-29T13:35:23;2.05;;;1.60;;
80510;SDS011;69840;53.040;8.600;2023-07-29T13:39:37;2.22;;;1.10;;
80510;SDS011;69840;53.040;8.600;2023-07-29T13:43:50;2.85;;;1.38;;
80510;SDS011;69840;53.040;8.600;2023-07-29T13:48:04;2.83;;;1.02;;
80510;SDS011;69840;53.040;8.600;2023-07-29T13:52:17;1.52;;;0.98;;
80510;SDS011;69840;53.040;8.600;2023-07-29T13:56:30;2.67;;;1.27;;
80510;SDS011;69840;53.040;8.600;2023-07-29T14:00:44;1.40;;;0.98;;
80510;SDS011;69840;53.040;8.600;2023-07-29T14:04:57;4.45;;;0.93;;
80510;SDS011;69840;53.040;8.600;2023-07-29T14:09:10;1.65;;;1.50;;
80510;SDS011;69840;53.040;8.600;2023-07-29T14:13:23;4.05;;;1.13;;
80510;SDS011;69840;53.040;8.600;2023-07-29T14:17:36;2.15;;;1.67;;
80510;SDS011;69840;53.040;8.600;2023-07-29T14:21:50;3.13;;;1.42;;
80510;SDS011;69840;53.040;8.600;2023-07-29T14:26:03;2.15;;;1.58;;
80510;SDS011;69840;53.040;8.600;2023-07-29T14:30:16;2.40;;;1.52;;
80510;SDS011;69840;53.040;8.600;2023-07-29T14:34:30;2.42;;;2.10;;
80510;SDS011;69840;53.040;8.600;2023-07-29T14:38:43;1.92;;;1.52;;
80510;SDS011;69840;53.040;8.600;2023-07-29T14:42:57;1.35;;;1.10;;
80510;SDS011;69840;53.040;8.600;2023-07-29T14:47:10;3.40;;;1.73;;
80510;SDS011;69840;53.040;8.600;2023-07-29T14:51:23;1.33;;;1.13;;
80510;SDS011;69840;53.040;8.600;2023-07-29T14:55:37;1.90;;;1.33;;
80510;SDS011;69840;53.040;8.600;2023-07-29T14:59:50;2.30;;;1.95;;
80510;SDS011;69840;53.040;8.600;2023-07-29T15:04:03;3.20;;;1.60;;
80510;SDS011;69840;53.040;8.600;2023-07-29T15:08:16;4.38;;;1.88;;
80510;SDS011;69840;53.040;8.600;2023-07-29T15:12:29;3.17;;;1.80;;
80510;SDS011;69840;53.040;8.600;2023-07-29T15:16:42;5.40;;;2.40;;
80510;SDS011;69840;53.040;8.600;2023-07-29T15:20:56;7.47;;;2.35;;
80510;SDS011;69840;53.040;8.600;2023-07-29T15:25:09;7.38;;;2.53;;
80510;SDS011;69840;53.040;8.600;2023-07-29T15:29:22;6.80;;;2.40;;
80510;SDS011;69840;53.040;8.600;2023-07-29T15:33:35;5.65;;;3.17;;
80510;SDS011;69840;53.040;8.600;2023-07-29T15:37:47;7.43;;;3.10;;
80510;SDS011;69840;53.040;8.600;2023-07-29T15:42:00;5.95;;;3.03;;
80510;SDS011;69840;53.040;8.600;2023-07-29T15:46:13;6.53;;;3.67;;
80510;SDS011;69840;53.040;8.600;2023-07-29T15:50:26;8.00;;;3.25;;
80510;SDS011;69840;53.040;8.600;2023-07-29T15:54:39;7.20;;;5.07;;
80510;SDS011;69840;53.040;8.600;2023-07-29T15:58:52;7.65;;;3.10;;
80510;SDS011;69840;53.040;8.600;2023-07-29T16:03:05;1.83;;;0.80;;
80510;SDS011;69840;53.040;8.600;2023-07-29T16:07:17;4.13;;;1.42;;
80510;SDS011;69840;53.040;8.600;2023-07-29T16:11:30;4.47;;;1.27;;
80510;SDS011;69840;53.040;8.600;2023-07-29T16:15:43;4.72;;;1.10;;
80510;SDS011;69840;53.040;8.600;2023-07-29T16:19:56;2.63;;;1.13;;
80510;SDS011;69840;53.040;8.600;2023-07-29T16:24:11;3.90;;;2.08;;
80510;SDS011;69840;53.040;8.600;2023-07-29T16:28:24;5.18;;;2.40;;
80510;SDS011;69840;53.040;8.600;2023-07-29T16:32:37;3.10;;;1.17;;
80510;SDS011;69840;53.040;8.600;2023-07-29T16:36:50;8.48;;;1.30;;
80510;SDS011;69840;53.040;8.600;2023-07-29T16:41:02;4.65;;;1.55;;
80510;SDS011;69840;53.040;8.600;2023-07-29T16:45:22;3.13;;;1.60;;
80510;SDS011;69840;53.040;8.600;2023-07-29T16:49:35;4.07;;;2.00;;
80510;SDS011;69840;53.040;8.600;2023-07-29T16:53:49;4.82;;;1.70;;
80510;SDS011;69840;53.040;8.600;2023-07-29T16:58:02;3.13;;;1.58;;
80510;SDS011;69840;53.040;8.600;2023-07-29T17:02:15;4.38;;;1.50;;
80510;SDS011;69840;53.040;8.600;2023-07-29T17:06:27;3.25;;;1.70;;
80510;SDS011;69840;53.040;8.600;2023-07-29T17:10:40;7.80;;;1.20;;
80510;SDS011;69840;53.040;8.600;2023-07-29T17:14:53;4.35;;;2.35;;
80510;SDS011;69840;53.040;8.600;2023-07-29T17:19:06;4.22;;;1.75;;
80510;SDS011;69840;53.040;8.600;2023-07-29T17:23:19;3.03;;;1.80;;
80510;SDS011;69840;53.040;8.600;2023-07-29T17:27:31;5.72;;;1.88;;
80510;SDS011;69840;53.040;8.600;2023-07-29T17:31:44;7.15;;;2.88;;
80510;SDS011;69840;53.040;8.600;2023-07-29T17:35:57;2.45;;;1.58;;
80510;SDS011;69840;53.040;8.600;2023-07-29T17:40:10;2.70;;;1.27;;
80510;SDS011;69840;53.040;8.600;2023-07-29T17:44:23;3.15;;;2.40;;
80510;SDS011;69840;53.040;8.600;2023-07-29T17:48:36;2.90;;;2.35;;
80510;SDS011;69840;53.040;8.600;2023-07-29T17:52:48;3.22;;;1.95;;
80510;SDS011;69840;53.040;8.600;2023-07-29T17:57:01;3.08;;;1.55;;
80510;SDS011;69840;53.040;8.600;2023-07-29T18:01:14;2.33;;;1.45;;
80510;SDS011;69840;53.040;8.600;2023-07-29T18:05:27;2.30;;;1.50;;
80510;SDS011;69840;53.040;8.600;2023-07-29T18:09:40;3.53;;;1.67;;
80510;SDS011;69840;53.040;8.600;2023-07-29T18:13:52;2.92;;;1.55;;
80510;SDS011;69840;53.040;8.600;2023-07-29T18:18:05;3.15;;;2.38;;
80510;SDS011;69840;53.040;8.600;2023-07-29T18:22:19;2.85;;;1.80;;
80510;SDS011;69840;53.040;8.600;2023-07-29T18:26:32;2.55;;;1.70;;
80510;SDS011;69840;53.040;8.600;2023-07-29T18:30:47;3.40;;;2.22;;
80510;SDS011;69840;53.040;8.600;2023-07-29T18:35:01;5.05;;;2.00;;
80510;SDS011;69840;53.040;8.600;2023-07-29T18:39:15;2.60;;;1.60;;
80510;SDS011;69840;53.040;8.600;2023-07-29T18:43:28;3.28;;;2.08;;
80510;SDS011;69840;53.040;8.600;2023-07-29T18:47:41;4.22;;;1.98;;
80510;SDS011;69840;53.040;8.600;2023-07-29T18:51:54;2.83;;;1.83;;
80510;SDS011;69840;53.040;8.600;2023-07-29T18:56:08;4.97;;;1.90;;
80510;SDS011;69840;53.040;8.600;2023-07-29T19:00:22;3.70;;;1.98;;
80510;SDS011;69840;53.040;8.600;2023-07-29T19:04:35;2.90;;;1.63;;
80510;SDS011;69840;53.040;8.600;2023-07-29T19:08:48;3.95;;;2.00;;
80510;SDS011;69840;53.040;8.600;2023-07-29T19:13:02;2.67;;;1.73;;
80510;SDS011;69840;53.040;8.600;2023-07-29T19:17:15;3.85;;;2.60;;
80510;SDS011;69840;53.040;8.600;2023-07-29T19:21:28;5.10;;;2.67;;
80510;SDS011;69840;53.040;8.600;2023-07-29T19:25:45;3.40;;;2.22;;
80510;SDS011;69840;53.040;8.600;2023-07-29T19:30:02;5.53;;;2.10;;
80510;SDS011;69840;53.040;8.600;2023-07-29T19:34:16;3.90;;;2.67;;
80510;SDS011;69840;53.040;8.600;2023-07-29T19:38:29;6.50;;;2.83;;
80510;SDS011;69840;53.040;8.600;2023-07-29T19:42:42;5.57;;;2.75;;
80510;SDS011;69840;53.040;8.600;2023-07-29T19:46:56;4.95;;;2.65;;
80510;SDS011;69840;53.040;8.600;2023-07-29T19:51:09;5.05;;;2.80;;
80510;SDS011;69840;53.040;8.600;2023-07-29T19:55:22;4.90;;;2.83;;
80510;SDS011;69840;53.040;8.600;2023-07-29T19:59:35;3.78;;;2.40;;
80510;SDS011;69840;53.040;8.600;2023-07-29T20:03:53;4.30;;;3.10;;
80510;SDS011;69840;53.040;8.600;2023-07-29T20:08:06;6.35;;;3.10;;
80510;SDS011;69840;53.040;8.600;2023-07-29T20:12:19;6.53;;;2.78;;
80510;SDS011;69840;53.040;8.600;2023-07-29T20:16:32;5.70;;;3.10;;
80510;SDS011;69840;53.040;8.600;2023-07-29T20:20:46;7.97;;;3.30;;
80510;SDS011;69840;53.040;8.600;2023-07-29T20:25:00;4.65;;;2.72;;
80510;SDS011;69840;53.040;8.600;2023-07-29T20:29:13;5.38;;;3.45;;
80510;SDS011;69840;53.040;8.600;2023-07-29T20:33:26;6.28;;;2.88;;
80510;SDS011;69840;53.040;8.600;2023-07-29T20:37:38;5.18;;;3.30;;
80510;SDS011;69840;53.040;8.600;2023-07-29T20:41:51;3.83;;;2.70;;
80510;SDS011;69840;53.040;8.600;2023-07-29T20:46:04;3.25;;;2.50;;
80510;SDS011;69840;53.040;8.600;2023-07-29T20:50:17;4.57;;;3.22;;
80510;SDS011;69840;53.040;8.600;2023-07-29T20:54:30;3.95;;;3.20;;
80510;SDS011;69840;53.040;8.600;2023-07-29T20:58:43;6.57;;;2.67;;
80510;SDS011;69840;53.040;8.600;2023-07-29T21:02:56;3.65;;;2.55;;
80510;SDS011;69840;53.040;8.600;2023-07-29T21:07:09;6.88;;;2.55;;
80510;SDS011;69840;53.040;8.600;2023-07-29T21:11:22;4.82;;;2.95;;
80510;SDS011;69840;53.040;8.600;2023-07-29T21:15:35;3.63;;;2.70;;
80510;SDS011;69840;53.040;8.600;2023-07-29T21:19:48;5.45;;;3.65;;
80510;SDS011;69840;53.040;8.600;2023-07-29T21:24:00;5.70;;;3.30;;
80510;SDS011;69840;53.040;8.600;2023-07-29T21:28:13;4.47;;;3.10;;
80510;SDS011;69840;53.040;8.600;2023-07-29T21:32:27;6.78;;;2.78;;
80510;SDS011;69840;53.040;8.600;2023-07-29T21:36:40;5.57;;;3.40;;
80510;SDS011;69840;53.040;8.600;2023-07-29T21:40:53;5.30;;;3.40;;
80510;SDS011;69840;53.040;8.600;2023-07-29T21:45:05;6.53;;;4.22;;
80510;SDS011;69840;53.040;8.600;2023-07-29T21:49:19;8.40;;;4.13;;
80510;SDS011;69840;53.040;8.600;2023-07-29T21:53:31;6.30;;;3.88;;
80510;SDS011;69840;53.040;8.600;2023-07-29T21:57:44;7.15;;;4.15;;
80510;SDS011;69840;53.040;8.600;2023-07-29T22:01:57;5.50;;;3.85;;
80510;SDS011;69840;53.040;8.600;2023-07-29T22:06:10;6.35;;;3.63;;
80510;SDS011;69840;53.040;8.600;2023-07-29T22:10:23;5.63;;;3.90;;
80510;SDS011;69840;53.040;8.600;2023-07-29T22:14:36;5.25;;;3.53;;
80510;SDS011;69840;53.040;8.600;2023-07-29T22:18:49;9.45;;;5.22;;
80510;SDS011;69840;53.040;8.600;2023-07-29T22:23:02;9.65;;;5.90;;
80510;SDS011;69840;53.040;8.600;2023-07-29T22:27:14;9.75;;;6.68;;
80510;SDS011;69840;53.040;8.600;2023-07-29T22:31:27;12.13;;;6.55;;
80510;SDS011;69840;53.040;8.600;2023-07-29T22:35:40;8.70;;;7.10;;
80510;SDS011;69840;53.040;8.600;2023-07-29T22:39:53;7.25;;;5.35;;
80510;SDS011;69840;53.040;8.600;2023-07-29T22:44:06;8.75;;;5.47;;
80510;SDS011;69840;53.040;8.600;2023-07-29T22:48:19;6.95;;;5.22;;
80510;SDS011;69840;53.040;8.600;2023-07-29T22:52:32;8.32;;;4.90;;
80510;SDS011;69840;53.040;8.600;2023-07-29T22:56:45;9.25;;;5.32;;
80510;SDS011;69840;53.040;8.600;2023-07-29T23:00:58;7.38;;;5.65;;
80510;SDS011;69840;53.040;8.600;2023-07-29T23:05:11;9.43;;;5.30;;
80510;SDS011;69840;53.040;8.600;2023-07-29T23:09:24;9.73;;;6.03;;
80510;SDS011;69840;53.040;8.600;2023-07-29T23:13:36;6.57;;;4.38;;
80510;SDS011;69840;53.040;8.600;2023-07-29T23:17:50;8.13;;;4.95;;
80510;SDS011;69840;53.040;8.600;2023-07-29T23:22:03;7.38;;;4.57;;
80510;SDS011;69840;53.040;8.600;2023-07-29T23:26:16;6.82;;;4.53;;
80510;SDS011;69840;53.040;8.600;2023-07-29T23:30:28;7.50;;;5.32;;
80510;SDS011;69840;53.040;8.600;2023-07-29T23:34:41;5.28;;;3.65;;
80510;SDS011;69840;53.040;8.600;2023-07-29T23:38:54;11.60;;;5.22;;
80510;SDS011;69840;53.040;8.600;2023-07-29T23:43:07;6.05;;;3.92;;
80510;SDS011;69840;53.040;8.600;2023-07-29T23:47:20;6.60;;;4.35;;
80510;SDS011;69840;53.040;8.600;2023-07-29T23:51:32;8.43;;;4.22;;
80510;SDS011;69840;53.040;8.600;2023-07-29T23:55:45;8.10;;;4.57;;
80510;SDS011;69840;53.040;8.600;2023-07-29T23:59:58;5.97;;;4.07;;
